• Join FlightAware (Why Join?)
  • Login
  • US Flag 
10:49AM EDT


 

Airport Tracker/Info


-or-


 

Live Flight TrackerFlight Track Log ✈ CHH7668 ✈ 27-Sep-2013 ✈ ZGKL / KWL - ZUCK / CKG

Flight Track Log - Related Links

Times and Time Zones

All times are in EDT time to prevent confusion due to time zone crossing. See the CHH7668 flight status page for this flight to view local times or setup timezone preferences in your user account.

Time Position Orientation Groundspeed Altitude Reporting Facility
EDT Latitude Longitude Course Direction KTS MPH feet Rate Location/Type
09:51AM 25.3317 109.9574 327° Northwest  Level Estimated
09:52AM 25.4452 109.8755 327° Northwest  Level Estimated
09:53AM 25.5588 109.7934 327° Northwest  Level Estimated
09:54AM 25.6722 109.7112 327° Northwest  Level Estimated
09:55AM 25.7856 109.6288 327° Northwest  Level Estimated
09:56AM 25.8990 109.5462 327° Northwest  Level Estimated
09:57AM 26.0123 109.4635 327° Northwest  Level Estimated
09:58AM 26.1256 109.3807 327° Northwest  Level Estimated
09:59AM 26.2388 109.2976 327° Northwest  Level Estimated
10:00AM 26.3520 109.2144 327° Northwest  Level Estimated
10:01AM 26.4651 109.1311 327° Northwest  Level Estimated
10:02AM 26.5782 109.0475 327° Northwest  Level Estimated
10:03AM 26.6912 108.9639 327° Northwest  Level Estimated
10:04AM 26.8042 108.8800 326° Northwest  Level Estimated
10:05AM 26.9171 108.7960 326° Northwest  Level Estimated
10:06AM 27.0300 108.7118 326° Northwest  Level Estimated
10:07AM 27.1428 108.6274 326° Northwest  Level Estimated
10:08AM 27.2556 108.5429 326° Northwest  Level Estimated
10:09AM 27.3683 108.4582 326° Northwest  Level Estimated
10:10AM 27.4810 108.3733 326° Northwest  Level Estimated
10:11AM 27.5936 108.2883 326° Northwest  Level Estimated
10:12AM 27.7062 108.2031 326° Northwest  Level Estimated
10:13AM 27.8187 108.1177 326° Northwest  Level Estimated
10:14AM 27.9312 108.0321 326° Northwest  Level Estimated
10:15AM 28.0436 107.9464 326° Northwest  Level Estimated
10:16AM 28.1560 107.8604 326° Northwest  Level Estimated
10:17AM 28.2683 107.7743 326° Northwest  Level Estimated
10:18AM 28.3806 107.6880 326° Northwest  Level Estimated
10:19AM 28.4928 107.6015 326° Northwest  Level Estimated
10:20AM 28.6049 107.5149 326° Northwest  Level Estimated
10:21AM 28.7170 107.4280 326° Northwest  Level Estimated
10:22AM 28.8290 107.3410 326° Northwest  Level Estimated
10:23AM 28.9410 107.2538 326° Northwest  Level Estimated
10:24AM 29.0529 107.1664 326° Northwest  Level Estimated
10:25AM 29.1648 107.0788 326° Northwest  Level Estimated
10:26AM 29.2766 106.9910 326° Northwest  Level Estimated
10:27AM 29.3884 106.9030 326° Northwest  Level Estimated
10:28AM 29.5000 106.8148 326° Northwest  Level Estimated
10:29AM 29.6117 106.7265 325° Northwest  Level Estimated
10:30AM 29.7194 106.6410 325° Northwest  Level Estimated
10:31AM 29.7194 106.6410 60° Northeast  Level Estimated
10:32AM 29.7194 106.6410 60° Northeast  Level Estimated
10:33AM 29.7194 106.6410 60° Northeast  Level Estimated
10:34AM 29.7194 106.6410 60° Northeast  Level Estimated
10:35AM 29.7194 106.6410 60° Northeast  Level Estimated
10:36AM 29.7194 106.6410 60° Northeast  Level Estimated